Terminal Aerodrome Forecast
Issued by NWS

Home | Current Version | Previous Version | Text Only | Print | Product List | Glossary On
Versions: 1 2 3 4 5 6 7 8 9 10 11 12 13 14 15 16 17
000
FTUS41 KPBZ 270643 AAA
TAFLBE
TAF AMD
KLBE 270643Z 2707/2806 14004KT P6SM SCT250 WS020/20035KT
     FM271700 18011G22KT P6SM BKN200
     FM272100 20009KT 6SM -SHRA VCTS BKN060CB
     FM280200 21006KT P6SM BKN025=

USA.gov is the U.S. government's official web portal to all federal, state and local government web resources and services.